Time;durP1;ratioP1;P1;durP2;ratioP2;P2;SDS_P1;SDS_P2;PMS_P1;PMS_P2;Temp;Humidity;BMP_temperature;BMP_pressure;BME280_temperature;BME280_humidity;BME280_pressure;Samples;Min_cycle;Max_cycle;Signal;HPM_P1;HPM_P2
2021/10/25 00:00:47;;;;;;;34.53;17.95;;;;;;;2.48;100.00;101802.47;5018459;28;20155;-72
2021/10/25 00:03:15;;;;;;;31.42;17.08;;;;;;;2.45;100.00;101800.75;5036264;28;20065;-72
2021/10/25 00:05:43;;;;;;;33.95;17.23;;;;;;;2.44;100.00;101795.47;5018110;28;20042;-72
2021/10/25 00:08:14;;;;;;;32.10;17.10;;;;;;;2.46;100.00;101798.97;5035821;28;20453;-73
2021/10/25 00:10:43;;;;;;;32.22;16.73;;;;;;;2.33;100.00;101787.59;5035460;28;20049;-72
2021/10/25 00:13:12;;;;;;;35.28;17.98;;;;;;;2.37;100.00;101794.59;5036035;28;20107;-72
2021/10/25 00:15:40;;;;;;;33.85;17.65;;;;;;;2.34;100.00;101793.75;5035597;28;20051;-71
2021/10/25 00:18:09;;;;;;;30.20;18.08;;;;;;;2.40;100.00;101791.09;5035604;28;20128;-72
2021/10/25 00:20:38;;;;;;;30.02;16.88;;;;;;;2.52;100.00;101791.06;5035862;28;20406;-74
2021/10/25 00:23:08;;;;;;;32.15;16.85;;;;;;;2.37;100.00;101791.97;5036003;28;20060;-72
2021/10/25 00:25:38;;;;;;;31.15;16.80;;;;;;;2.37;100.00;101793.72;5036030;28;20419;-72
2021/10/25 00:28:06;;;;;;;30.70;17.40;;;;;;;2.44;100.00;101787.59;5035718;28;20041;-72
2021/10/25 00:30:34;;;;;;;31.73;17.40;;;;;;;2.40;100.00;101794.59;5035815;28;20049;-73
2021/10/25 00:33:02;;;;;;;29.02;17.05;;;;;;;2.40;100.00;101793.72;5035258;28;20192;-72
2021/10/25 00:35:31;;;;;;;36.08;18.52;;;;;;;2.25;100.00;101792.88;5035323;28;20053;-73
2021/10/25 00:37:59;;;;;;;32.13;17.33;;;;;;;2.24;100.00;101791.13;5017368;28;20119;-72
2021/10/25 00:40:27;;;;;;;35.05;17.80;;;;;;;2.16;100.00;101790.25;5035513;28;20041;-73
2021/10/25 00:42:57;;;;;;;32.65;17.08;;;;;;;2.18;100.00;101788.50;5034843;28;20037;-72
2021/10/25 00:45:25;;;;;;;37.65;17.63;;;;;;;2.18;100.00;101788.50;5035451;28;20065;-73
2021/10/25 00:47:53;;;;;;;31.17;17.67;;;;;;;2.14;100.00;101786.75;5034778;28;20045;-74
2021/10/25 00:50:21;;;;;;;34.90;17.88;;;;;;;2.20;100.00;101797.25;5033799;28;20048;-74
2021/10/25 00:52:50;;;;;;;33.30;18.00;;;;;;;2.09;100.00;101783.25;5034873;28;20087;-74
2021/10/25 00:55:19;;;;;;;31.17;17.13;;;;;;;2.10;100.00;101787.63;5034806;28;20045;-74
2021/10/25 00:57:47;;;;;;;31.95;17.20;;;;;;;2.14;100.00;101786.75;5034869;28;20379;-74
2021/10/25 01:00:17;;;;;;;28.52;15.88;;;;;;;2.13;100.00;101785.00;5034861;28;20494;-74
2021/10/25 01:02:45;;;;;;;31.08;17.00;;;;;;;2.20;100.00;101785.84;5034777;28;20497;-75
2021/10/25 01:05:14;;;;;;;32.65;16.52;;;;;;;2.03;100.00;101783.25;5035144;28;20042;-74
2021/10/25 01:07:42;;;;;;;30.92;16.48;;;;;;;1.93;100.00;101781.47;5034290;28;20045;-73
2021/10/25 01:10:11;;;;;;;34.60;17.83;;;;;;;2.01;100.00;101783.25;5034648;28;20133;-73
2021/10/25 01:12:40;;;;;;;33.95;16.45;;;;;;;2.01;100.00;101787.63;5034421;28;20499;-72
2021/10/25 01:15:09;;;;;;;32.42;16.75;;;;;;;1.85;100.00;101778.00;5034567;28;20045;-71
2021/10/25 01:17:39;;;;;;;31.00;16.48;;;;;;;1.94;100.00;101772.75;5034793;28;20041;-71
2021/10/25 01:20:10;;;;;;;30.42;16.75;;;;;;;1.94;100.00;101772.75;5017309;28;20107;-75
2021/10/25 01:22:38;;;;;;;32.67;16.30;;;;;;;1.72;100.00;101777.97;5034892;28;20049;-75
2021/10/25 01:25:07;;;;;;;33.47;17.65;;;;;;;1.58;100.00;101774.47;5034600;28;20099;-76
2021/10/25 01:27:36;;;;;;;33.80;17.42;;;;;;;1.61;100.00;101782.38;5034328;28;20045;-75
2021/10/25 01:30:05;;;;;;;34.97;17.45;;;;;;;1.73;100.00;101782.38;5034269;28;20049;-75
2021/10/25 01:32:34;;;;;;;29.25;16.25;;;;;;;1.73;100.00;101766.56;5034229;28;20403;-76
2021/10/25 01:35:02;;;;;;;33.35;16.83;;;;;;;1.75;100.00;101771.00;5034128;28;20883;-74
2021/10/25 01:37:32;;;;;;;32.60;17.30;;;;;;;1.65;100.00;101771.00;5034372;28;20096;-74
2021/10/25 01:40:00;;;;;;;32.50;18.05;;;;;;;1.65;100.00;101764.84;5034052;28;20047;-74
2021/10/25 01:42:29;;;;;;;28.35;17.55;;;;;;;1.53;100.00;101760.44;5016809;28;20056;-74
2021/10/25 01:44:57;;;;;;;35.15;17.90;;;;;;;1.59;100.00;101755.19;5033928;28;20148;-75
2021/10/25 01:47:25;;;;;;;33.10;17.05;;;;;;;1.76;100.00;101755.19;5034010;28;20045;-74
2021/10/25 01:49:56;;;;;;;31.00;16.75;;;;;;;1.67;100.00;101755.19;5034003;28;20049;-75
2021/10/25 01:52:25;;;;;;;36.15;18.63;;;;;;;1.49;100.00;101763.06;5034115;28;20049;-74
2021/10/25 01:54:54;;;;;;;32.67;17.70;;;;;;;1.28;100.00;101764.81;5033463;28;20053;-75
2021/10/25 01:57:23;;;;;;;35.58;18.83;;;;;;;1.19;100.00;101771.78;5033806;28;20069;-74
2021/10/25 01:59:51;;;;;;;37.13;17.80;;;;;;;1.28;100.00;101763.94;5033774;28;20037;-73
2021/10/25 02:02:22;;;;;;;33.67;18.80;;;;;;;1.37;100.00;101769.19;5033824;28;20046;-74
2021/10/25 02:04:50;;;;;;;35.08;18.45;;;;;;;1.61;100.00;101758.69;5033578;28;20091;-73
2021/10/25 02:07:19;;;;;;;34.97;18.15;;;;;;;1.58;100.00;101765.72;5034021;28;20041;-74
2021/10/25 02:09:48;;;;;;;36.78;18.30;;;;;;;1.57;100.00;101762.22;5033290;28;20043;-73
2021/10/25 02:12:17;;;;;;;34.25;18.38;;;;;;;1.45;100.00;101751.69;5033504;28;20045;-73
2021/10/25 02:14:45;;;;;;;38.05;18.77;;;;;;;1.54;100.00;101746.41;5033424;28;20441;-77
2021/10/25 02:17:14;;;;;;;36.65;18.13;;;;;;;1.62;100.00;101749.91;5033724;28;20045;-72
2021/10/25 02:19:43;;;;;;;33.03;18.13;;;;;;;1.52;100.00;101745.53;5033663;28;20084;-72
2021/10/25 02:22:11;;;;;;;35.55;18.42;;;;;;;1.37;100.00;101750.78;5033259;28;20501;-73
2021/10/25 02:24:43;;;;;;;35.08;17.98;;;;;;;1.37;100.00;101742.91;5033512;28;20049;-75
2021/10/25 02:27:11;;;;;;;32.35;18.10;;;;;;;1.44;100.00;101739.38;5033279;28;20045;-74
2021/10/25 02:29:41;;;;;;;34.60;18.08;;;;;;;1.44;100.00;101749.91;5033465;28;20045;-76
2021/10/25 02:32:15;;;;;;;31.85;18.30;;;;;;;1.31;100.00;101732.38;5034659;28;20053;-75
2021/10/25 02:34:45;;;;;;;38.20;17.83;;;;;;;1.39;100.00;101742.03;5034032;28;20084;-76
2021/10/25 02:37:14;;;;;;;38.00;18.23;;;;;;;1.33;100.00;101730.63;5033483;28;20391;-74
2021/10/25 02:39:43;;;;;;;29.00;17.50;;;;;;;1.33;100.00;101734.13;5033122;28;20041;-72
2021/10/25 02:42:12;;;;;;;35.78;17.42;;;;;;;1.30;100.00;101741.13;5032966;28;20052;-72
2021/10/25 02:44:43;;;;;;;31.08;16.70;;;;;;;1.22;100.00;101735.88;5033096;28;20050;-72
2021/10/25 02:47:12;;;;;;;33.60;16.75;;;;;;;1.25;100.00;101737.59;5032931;28;20132;-74
2021/10/25 02:49:40;;;;;;;29.42;16.73;;;;;;;1.30;100.00;101736.75;5033163;28;20042;-74
2021/10/25 02:52:09;;;;;;;32.60;17.23;;;;;;;1.33;100.00;101742.00;5032977;28;20041;-72
2021/10/25 02:54:37;;;;;;;31.10;16.65;;;;;;;1.14;100.00;101740.22;5033822;28;20095;-74
2021/10/25 02:57:06;;;;;;;35.05;17.17;;;;;;;1.22;100.00;101742.88;5032951;28;20045;-76
2021/10/25 02:59:34;;;;;;;32.17;17.55;;;;;;;1.03;100.00;101753.34;5033657;28;20153;-77
2021/10/25 03:02:03;;;;;;;31.08;17.23;;;;;;;1.03;100.00;101742.81;5032825;28;20055;-75
2021/10/25 03:04:32;;;;;;;33.58;17.05;;;;;;;1.18;100.00;101736.75;5015608;28;20120;-76
2021/10/25 03:07:00;;;;;;;33.85;17.70;;;;;;;1.14;100.00;101748.97;5032555;28;20048;-72
2021/10/25 03:09:29;;;;;;;35.55;17.58;;;;;;;1.21;100.00;101741.13;5032753;28;20045;-72
2021/10/25 03:11:57;;;;;;;34.70;17.67;;;;;;;1.15;100.00;101734.09;5032703;28;20475;-72
2021/10/25 03:14:25;;;;;;;30.10;17.10;;;;;;;1.04;100.00;101731.44;5035846;28;20390;-73
2021/10/25 03:16:53;;;;;;;28.85;16.60;;;;;;;1.13;100.00;101722.69;5036749;28;20047;-73
2021/10/25 03:19:23;;;;;;;32.50;17.08;;;;;;;1.00;100.00;101727.06;5036942;28;20399;-72
2021/10/25 03:21:51;;;;;;;32.60;17.17;;;;;;;0.97;100.00;101732.31;5036815;28;20045;-72
2021/10/25 03:24:20;;;;;;;36.65;17.58;;;;;;;0.83;100.00;101734.00;5019172;28;20053;-73
2021/10/25 03:26:48;;;;;;;27.95;16.27;;;;;;;0.96;100.00;101722.66;5036896;28;20045;-73
2021/10/25 03:29:17;;;;;;;31.45;17.15;;;;;;;0.91;100.00;101724.41;5036549;28;20130;-73
2021/10/25 03:31:46;;;;;;;31.88;16.48;;;;;;;0.83;100.00;101720.88;5036779;28;20371;-74
2021/10/25 03:34:14;;;;;;;29.00;15.90;;;;;;;0.84;100.00;101720.00;5036406;28;20448;-74
2021/10/25 03:36:47;;;;;;;30.63;16.30;;;;;;;0.94;100.00;101700.75;5018896;28;20073;-73
2021/10/25 03:39:19;;;;;;;32.78;16.83;;;;;;;0.91;100.00;101711.28;5036508;28;20045;-73
2021/10/25 03:41:49;;;;;;;30.15;15.98;;;;;;;0.86;100.00;101710.38;5036434;28;20045;-73
2021/10/25 03:44:21;;;;;;;29.17;15.75;;;;;;;0.82;100.00;101713.88;5036233;28;20038;-74
2021/10/25 03:46:53;;;;;;;33.33;16.88;;;;;;;0.80;100.00;101719.13;5036640;28;20393;-73
2021/10/25 03:49:28;;;;;;;33.40;17.60;;;;;;;0.71;100.00;101713.84;5036264;28;20099;-73
2021/10/25 03:52:01;;;;;;;30.45;16.13;;;;;;;0.83;100.00;101705.13;5036417;28;20120;-74
2021/10/25 03:54:35;;;;;;;28.03;16.03;;;;;;;0.94;100.00;101710.41;5036471;28;20041;-74
2021/10/25 04:02:48;;;;;;;31.08;16.42;;;;;;;0.75;100.00;101704.22;4996837;28;20418;-72
2021/10/25 04:25:13;;;;;;;31.70;16.83;;;;;;;0.45;100.00;101695.34;5035876;28;20041;-72
2021/10/25 04:27:48;;;;;;;33.50;17.02;;;;;;;0.30;100.00;101683.94;5035860;28;20043;-76
2021/10/25 04:30:18;;;;;;;28.75;16.02;;;;;;;0.34;100.00;101677.81;5035224;28;20501;-74
2021/10/25 04:32:47;;;;;;;33.90;16.85;;;;;;;0.57;100.00;101687.50;5035858;28;20042;-73
2021/10/25 04:35:16;;;;;;;31.95;17.42;;;;;;;0.34;100.00;101677.81;5035067;28;20445;-76
2021/10/25 04:37:44;;;;;;;32.08;16.67;;;;;;;0.47;100.00;101682.22;5035736;28;20073;-75
2021/10/25 04:40:14;;;;;;;29.75;16.48;;;;;;;0.55;100.00;101681.38;5035710;28;20046;-75
2021/10/25 04:42:43;;;;;;;29.75;15.93;;;;;;;0.52;100.00;101683.13;5036555;28;20478;-75
2021/10/25 04:45:11;;;;;;;28.42;16.50;;;;;;;0.54;100.00;101678.75;5036022;28;20425;-75
2021/10/25 04:47:39;;;;;;;32.78;16.30;;;;;;;0.61;100.00;101682.28;5035825;28;20045;-76
2021/10/25 04:50:08;;;;;;;31.30;15.63;;;;;;;0.63;100.00;101683.16;5034806;28;20104;-75
2021/10/25 04:52:36;;;;;;;29.88;16.45;;;;;;;0.51;100.00;101674.38;5034998;28;20441;-76
2021/10/25 04:55:06;;;;;;;29.98;16.58;;;;;;;0.30;100.00;101674.31;5034684;28;20097;-76
2021/10/25 04:57:36;;;;;;;32.15;15.57;;;;;;;0.29;100.00;101672.56;5035180;28;20069;-70
2021/10/25 05:00:06;;;;;;;29.30;14.77;;;;;;;0.42;100.00;101673.47;5034541;28;20402;-70
2021/10/25 05:02:35;;;;;;;33.72;16.67;;;;;;;0.36;100.00;101669.06;5035205;28;20095;-72
2021/10/25 05:05:05;;;;;;;34.38;16.05;;;;;;;0.35;100.00;101671.69;5034642;28;20052;-73
2021/10/25 05:07:34;;;;;;;30.45;16.45;;;;;;;0.28;100.00;101673.41;5017629;28;20394;-73
2021/10/25 05:10:03;;;;;;;29.75;16.13;;;;;;;0.48;100.00;101668.22;5034616;28;20216;-73
2021/10/25 05:12:32;;;;;;;28.38;15.27;;;;;;;0.33;100.00;101663.81;5034880;28;20064;-72
2021/10/25 05:15:02;;;;;;;28.92;15.07;;;;;;;0.39;100.00;101671.72;5034411;28;20048;-74
2021/10/25 05:17:31;;;;;;;28.23;15.55;;;;;;;0.43;100.00;101665.59;5034939;28;20072;-70
2021/10/25 05:19:59;;;;;;;27.30;14.60;;;;;;;0.45;100.00;101668.22;5034077;28;20100;-72
2021/10/25 05:22:28;;;;;;;29.38;14.60;;;;;;;0.48;100.00;101663.88;5034634;28;20039;-73
2021/10/25 05:24:57;;;;;;;30.25;15.07;;;;;;;0.52;100.00;101665.63;5034910;28;20046;-74
2021/10/25 05:27:25;;;;;;;28.63;14.43;;;;;;;0.44;100.00;101667.34;5034606;28;20092;-73
2021/10/25 05:29:53;;;;;;;31.17;15.60;;;;;;;0.46;100.00;101669.97;5034214;28;20041;-73
2021/10/25 05:32:23;;;;;;;30.45;16.20;;;;;;;0.53;100.00;101680.50;5033838;28;20045;-74
2021/10/25 05:34:52;;;;;;;33.85;14.70;;;;;;;0.41;100.00;101677.84;5034011;28;20053;-73
2021/10/25 05:37:20;;;;;;;29.50;15.38;;;;;;;0.55;100.00;101681.38;5033459;28;20041;-73
2021/10/25 05:39:49;;;;;;;27.02;15.10;;;;;;;0.60;100.00;101684.03;5034421;28;20096;-74
2021/10/25 05:42:17;;;;;;;27.55;15.25;;;;;;;0.64;100.00;101680.53;5033725;28;20076;-73
2021/10/25 05:44:45;;;;;;;31.02;15.90;;;;;;;0.46;100.00;101685.72;5033811;28;20061;-74
2021/10/25 05:47:14;;;;;;;29.15;14.63;;;;;;;0.52;100.00;101691.88;5033977;28;20052;-74
2021/10/25 05:49:43;;;;;;;31.00;15.98;;;;;;;0.41;100.00;101685.72;5016653;28;20057;-73
2021/10/25 05:52:11;;;;;;;31.25;15.73;;;;;;;0.29;100.00;101685.69;5016631;28;20054;-74
2021/10/25 05:54:40;;;;;;;31.90;17.00;;;;;;;0.64;100.00;101691.06;5033772;28;20128;-74
2021/10/25 05:57:09;;;;;;;28.17;14.35;;;;;;;0.75;100.00;101691.94;5033218;28;20044;-74
2021/10/25 05:59:38;;;;;;;28.65;15.05;;;;;;;0.72;100.00;101691.97;5033896;28;20041;-75
2021/10/25 06:02:13;;;;;;;32.08;15.38;;;;;;;0.82;100.00;101682.34;5033640;28;20045;-73
2021/10/25 06:04:43;;;;;;;29.10;15.73;;;;;;;0.93;100.00;101696.38;5033681;28;20158;-72
2021/10/25 06:07:11;;;;;;;29.20;15.52;;;;;;;0.93;100.00;101683.25;5036551;28;20611;-71
2021/10/25 06:09:40;;;;;;;27.33;15.10;;;;;;;1.07;100.00;101692.06;5033822;28;20144;-77
2021/10/25 06:12:13;;;;;;;27.13;15.00;;;;;;;1.13;100.00;101701.69;5033749;28;20120;-76
2021/10/25 06:14:44;;;;;;;30.67;15.13;;;;;;;1.24;100.00;101694.69;5033189;28;20064;-73
2021/10/25 06:17:24;;;;;;;30.70;15.70;;;;;;;1.30;100.00;101693.81;5033088;28;20049;-77
2021/10/25 06:19:53;;;;;;;29.60;15.23;;;;;;;1.25;100.00;101696.44;5033689;28;20045;-71
2021/10/25 06:22:22;;;;;;;31.02;15.98;;;;;;;1.25;100.00;101695.56;5033212;28;20115;-71
2021/10/25 06:24:51;;;;;;;29.83;15.70;;;;;;;1.30;100.00;101692.06;5033414;28;20107;-70
2021/10/25 06:27:19;;;;;;;29.42;14.32;;;;;;;1.49;100.00;101695.56;5033034;28;20445;-71
2021/10/25 06:29:47;;;;;;;28.70;14.30;;;;;;;1.63;100.00;101696.44;5033373;28;20042;-70
2021/10/25 06:32:16;;;;;;;24.83;14.02;;;;;;;1.62;100.00;101691.19;5033101;28;20037;-71
2021/10/25 06:34:48;;;;;;;26.52;13.70;;;;;;;1.73;100.00;101690.28;5033327;28;20048;-73
2021/10/25 06:37:19;;;;;;;28.27;14.52;;;;;;;1.81;100.00;101697.31;5032687;28;20060;-71
2021/10/25 06:39:53;;;;;;;27.25;14.05;;;;;;;1.96;100.00;101686.75;5033148;28;20037;-71
2021/10/25 06:42:26;;;;;;;24.98;13.27;;;;;;;1.88;100.00;101688.53;5032867;28;20041;-70
2021/10/25 06:44:54;;;;;;;31.92;15.20;;;;;;;1.85;100.00;101694.69;5032478;28;20053;-69
2021/10/25 06:47:23;;;;;;;24.88;13.80;;;;;;;1.95;100.00;101696.41;5032130;28;20118;-70
2021/10/25 06:49:52;;;;;;;28.65;12.75;;;;;;;2.07;100.00;101690.25;5033021;28;20042;-70
2021/10/25 06:52:21;;;;;;;27.35;13.95;;;;;;;2.36;100.00;101691.91;5033087;28;20065;-68
2021/10/25 06:54:50;;;;;;;28.63;13.85;;;;;;;2.41;100.00;101683.09;5033185;28;20050;-68
2021/10/25 06:57:18;;;;;;;23.63;13.25;;;;;;;2.33;100.00;101689.31;5032635;28;20121;-69
2021/10/25 06:59:46;;;;;;;24.60;13.05;;;;;;;2.38;100.00;101693.66;5033224;28;20418;-70
2021/10/25 07:02:15;;;;;;;31.10;13.43;;;;;;;2.47;100.00;101698.88;5032964;28;20046;-70
2021/10/25 07:04:47;;;;;;;28.35;13.20;;;;;;;2.68;100.00;101697.91;5033118;28;20041;-71
2021/10/25 07:07:16;;;;;;;26.88;13.38;;;;;;;2.69;100.00;101689.13;5032600;28;20042;-70
2021/10/25 07:09:46;;;;;;;25.17;14.23;;;;;;;2.77;100.00;101694.34;5032601;28;20545;-69
2021/10/25 07:12:14;;;;;;;24.48;13.57;;;;;;;2.79;100.00;101698.72;5032635;28;20435;-69
2021/10/25 07:14:44;;;;;;;28.85;13.48;;;;;;;3.13;100.00;101696.78;5032905;28;20056;-70
2021/10/25 07:17:20;;;;;;;25.88;13.15;;;;;;;3.11;100.00;101695.94;5032419;28;20053;-68
2021/10/25 07:20:00;;;;;;;25.40;12.20;;;;;;;3.21;100.00;101704.66;5032907;28;20038;-67
2021/10/25 08:07:09;;;;;;;18.70;11.35;;;;;;;4.85;95.75;101690.63;5016205;28;20490;-68
2021/10/25 08:09:48;;;;;;;22.60;11.43;;;;;;;5.08;93.93;101688.53;5036376;28;20128;-68
2021/10/25 08:12:18;;;;;;;19.05;10.77;;;;;;;4.95;94.35;101686.97;5035547;28;20088;-68
2021/10/25 08:14:51;;;;;;;19.05;11.07;;;;;;;5.16;93.66;101684.00;5036210;28;20041;-68
2021/10/25 08:17:22;;;;;;;20.60;11.77;;;;;;;5.27;93.74;101675.91;5035573;28;20041;-67
2021/10/25 08:19:51;;;;;;;21.52;11.15;;;;;;;5.57;92.54;101673.66;5036205;28;20048;-68
2021/10/25 08:22:20;;;;;;;17.73;10.32;;;;;;;5.57;91.76;101678.94;5035445;28;20129;-69
2021/10/25 08:24:50;;;;;;;19.25;10.27;;;;;;;5.46;91.76;101687.06;5035835;28;20045;-68
2021/10/25 08:27:23;;;;;;;23.65;10.27;;;;;;;5.27;93.08;101681.19;5035788;28;20053;-68
2021/10/25 08:29:53;;;;;;;22.52;10.98;;;;;;;5.31;93.57;101667.03;5035940;28;20397;-68
2021/10/25 08:32:39;;;;;;;23.25;11.40;;;;;;;5.37;92.90;101663.41;5035218;28;20461;-69
2021/10/25 08:35:30;;;;;;;18.20;10.00;;;;;;;5.66;92.29;101668.19;5035689;28;20083;-68
2021/10/25 08:40:44;;;;;;;12.90;6.20;;;;;;;6.42;84.38;101664.13;5035407;28;20045;-68
2021/10/25 08:43:13;;;;;;;9.05;4.85;;;;;;;6.62;81.53;101660.19;5035591;28;20414;-68
2021/10/25 08:45:48;;;;;;;9.20;4.32;;;;;;;6.85;79.54;101658.78;5035527;28;20057;-68
2021/10/25 08:48:17;;;;;;;9.43;4.75;;;;;;;6.83;79.94;101657.94;5035340;28;20049;-67
2021/10/25 08:50:45;;;;;;;8.30;4.40;;;;;;;7.08;78.58;101655.59;5035500;28;20038;-67
2021/10/25 08:53:14;;;;;;;10.10;4.72;;;;;;;7.12;77.55;101649.28;5035221;28;20069;-73
2021/10/25 08:55:46;;;;;;;9.57;4.53;;;;;;;7.16;77.40;101653.66;5035555;28;20041;-68
2021/10/25 08:58:14;;;;;;;9.10;4.43;;;;;;;7.31;77.12;101652.38;5035043;28;20438;-69
2021/10/25 09:00:46;;;;;;;10.63;4.38;;;;;;;7.46;75.89;101652.00;5035250;28;20041;-68
2021/10/25 09:03:15;;;;;;;7.15;4.03;;;;;;;7.59;74.99;101659.66;5035202;28;20045;-75
2021/10/25 09:05:53;;;;;;;10.18;4.70;;;;;;;7.57;75.22;101661.50;5035153;28;20045;-68
2021/10/25 09:08:21;;;;;;;9.23;4.55;;;;;;;7.48;75.80;101651.97;5035008;28;20045;-69
2021/10/25 09:10:49;;;;;;;10.82;4.45;;;;;;;7.51;75.56;101657.19;5034132;28;20045;-68
2021/10/25 09:13:24;;;;;;;7.80;4.03;;;;;;;7.70;74.40;101653.16;5034785;28;20042;-68
2021/10/25 09:15:58;;;;;;;7.50;4.15;;;;;;;7.92;73.71;101642.84;5035058;28;20551;-68
2021/10/25 09:18:28;;;;;;;11.55;4.40;;;;;;;8.11;72.73;101650.31;5034489;28;20103;-67
2021/10/25 09:20:59;;;;;;;8.75;4.15;;;;;;;8.00;72.80;101643.50;5034742;28;20096;-68
2021/10/25 09:23:30;;;;;;;10.63;4.05;;;;;;;7.94;72.70;101646.34;5034430;28;20042;-67
2021/10/25 09:26:01;;;;;;;12.05;4.15;;;;;;;8.14;72.24;101650.22;5034979;28;20038;-68
2021/10/25 09:28:34;;;;;;;9.35;3.88;;;;;;;8.18;71.82;101643.91;5034586;28;20470;-68
2021/10/25 09:31:17;;;;;;;8.68;4.05;;;;;;;8.25;71.69;101648.13;5034823;28;20042;-68
2021/10/25 09:33:52;;;;;;;10.23;4.07;;;;;;;8.14;72.37;101621.00;5034789;28;20049;-68
2021/10/25 09:36:20;;;;;;;12.25;4.07;;;;;;;8.37;71.97;101636.31;5034416;28;20099;-68
2021/10/25 09:38:58;;;;;;;8.60;4.13;;;;;;;8.48;71.59;101632.41;5034507;28;20064;-68
2021/10/25 09:50:01;;;;;;;7.22;3.35;;;;;;;8.87;67.48;101624.13;5009897;28;20053;-67
2021/10/25 09:52:31;;;;;;;9.35;4.10;;;;;;;8.83;67.74;101627.81;5033974;28;20038;-68
2021/10/25 09:55:01;;;;;;;8.43;4.25;;;;;;;8.70;69.37;101627.34;5034192;28;20049;-68
2021/10/25 09:57:39;;;;;;;11.07;4.63;;;;;;;8.84;68.03;101613.59;5034154;28;20128;-69
2021/10/25 10:00:09;;;;;;;8.90;4.72;;;;;;;8.67;69.05;101621.22;5034818;28;20045;-67
2021/10/25 10:02:40;;;;;;;9.40;4.60;;;;;;;8.81;68.32;101611.91;5034959;28;20069;-68
2021/10/25 10:05:11;;;;;;;10.48;4.57;;;;;;;8.72;69.23;101611.31;5034751;28;20073;-68
2021/10/25 10:07:44;;;;;;;10.60;4.78;;;;;;;8.70;68.99;101614.03;5033943;28;20483;-68
2021/10/25 10:10:15;;;;;;;9.38;4.80;;;;;;;8.78;68.75;101597.81;5034198;28;20057;-68
2021/10/25 10:12:46;;;;;;;10.93;5.00;;;;;;;8.73;69.08;101597.09;5034125;28;20046;-69
2021/10/25 10:15:15;;;;;;;9.88;4.93;;;;;;;8.57;70.03;101594.91;5033889;28;20049;-68
2021/10/25 10:17:51;;;;;;;11.00;4.88;;;;;;;8.81;69.57;101587.09;5033215;28;20041;-68
2021/10/25 10:20:22;;;;;;;10.57;5.20;;;;;;;9.17;68.31;101579.72;5033786;28;20121;-68
2021/10/25 10:22:53;;;;;;;10.43;4.53;;;;;;;9.14;67.04;101575.34;5034235;28;20065;-67
2021/10/25 10:25:30;;;;;;;10.05;4.88;;;;;;;9.23;67.26;101570.63;5033582;28;20080;-69
2021/10/25 10:28:02;;;;;;;9.25;3.92;;;;;;;9.02;68.01;101569.56;5033909;28;20056;-68
2021/10/25 10:30:31;;;;;;;9.27;4.93;;;;;;;8.87;68.58;101570.91;5033514;28;20069;-68
2021/10/25 10:33:02;;;;;;;8.27;3.42;;;;;;;9.15;64.47;101555.78;5033587;28;20116;-68
2021/10/25 10:35:40;;;;;;;12.85;4.13;;;;;;;9.25;65.27;101558.13;5033088;28;20441;-68
2021/10/25 10:38:09;;;;;;;10.07;4.40;;;;;;;9.18;65.59;101555.69;5033352;28;20107;-69
2021/10/25 10:40:39;;;;;;;15.93;5.00;;;;;;;9.31;65.34;101549.94;5033118;28;20041;-67
2021/10/25 10:43:20;;;;;;;7.78;3.65;;;;;;;9.45;62.86;101550.34;5033339;28;20037;-67
2021/10/25 10:45:58;;;;;;;7.07;3.65;;;;;;;9.52;64.14;101549.19;5033540;28;20538;-68
2021/10/25 10:48:31;;;;;;;10.95;4.93;;;;;;;9.41;65.86;101551.38;5033167;28;20046;-69
2021/10/25 10:51:05;;;;;;;6.75;3.78;;;;;;;9.46;64.49;101552.09;5033195;28;20045;-68
2021/10/25 10:53:38;;;;;;;9.60;4.25;;;;;;;9.78;63.21;101555.41;5034076;28;20490;-68
2021/10/25 10:56:19;;;;;;;7.63;4.30;;;;;;;9.63;64.43;101548.81;5033611;28;20475;-69
2021/10/25 10:58:52;;;;;;;10.73;4.55;;;;;;;9.54;64.90;101535.81;5033084;28;20041;-68
2021/10/25 11:01:20;;;;;;;10.30;4.55;;;;;;;9.44;65.50;101536.16;5033121;28;20487;-68
2021/10/25 11:03:59;;;;;;;10.55;4.63;;;;;;;9.83;64.54;101532.09;5033168;28;20049;-68
2021/10/25 11:06:31;;;;;;;9.38;4.20;;;;;;;9.73;64.73;101527.09;5033048;28;20044;-68
2021/10/25 11:09:08;;;;;;;9.65;4.18;;;;;;;9.92;63.93;101519.31;5033049;28;20042;-68
2021/10/25 11:11:39;;;;;;;7.28;4.13;;;;;;;10.05;63.26;101514.41;5032573;28;20049;-69
2021/10/25 11:14:13;;;;;;;13.32;4.50;;;;;;;9.83;64.51;101510.78;5032671;28;20063;-69
2021/10/25 11:16:44;;;;;;;8.68;4.07;;;;;;;10.07;63.48;101512.53;5032656;28;20049;-67
2021/10/25 11:19:14;;;;;;;10.02;4.32;;;;;;;9.92;64.21;101513.13;5032955;28;20073;-69
2021/10/25 11:21:46;;;;;;;8.50;4.43;;;;;;;9.81;64.55;101496.66;5032722;28;20080;-69
2021/10/25 11:24:17;;;;;;;12.35;5.43;;;;;;;9.74;64.68;101490.69;5032940;28;20050;-69
2021/10/25 11:26:48;;;;;;;7.97;4.25;;;;;;;9.88;65.10;101487.50;5032773;28;20522;-68
2021/10/25 11:29:20;;;;;;;9.35;3.67;;;;;;;10.02;64.23;101491.38;5032962;28;20091;-68
2021/10/25 11:31:51;;;;;;;8.68;4.50;;;;;;;10.02;64.16;101488.72;5032834;28;20038;-68
2021/10/25 11:34:24;;;;;;;11.82;4.30;;;;;;;9.91;64.15;101479.41;5034032;28;20041;-69
2021/10/25 11:36:58;;;;;;;6.88;3.63;;;;;;;10.19;63.30;101474.75;5036827;28;20041;-69
2021/10/25 11:39:35;;;;;;;6.85;3.65;;;;;;;10.38;62.03;101474.03;5036554;28;20398;-68
2021/10/25 11:42:07;;;;;;;11.65;4.25;;;;;;;10.34;62.12;101464.44;5037020;28;20041;-68
2021/10/25 11:44:37;;;;;;;10.75;4.22;;;;;;;10.26;62.50;101457.59;5036380;28;20057;-68
2021/10/25 11:47:16;;;;;;;7.45;3.83;;;;;;;10.06;63.64;101461.97;5036689;28;20041;-68
2021/10/25 11:49:46;;;;;;;7.97;3.97;;;;;;;10.10;63.21;101458.22;5036118;28;20073;-68
2021/10/25 11:52:14;;;;;;;7.15;3.60;;;;;;;10.06;63.11;101454.81;5036454;28;20103;-68
2021/10/25 11:54:47;;;;;;;8.13;3.65;;;;;;;10.10;63.27;101458.22;5036033;28;20049;-68
2021/10/25 11:57:17;;;;;;;8.20;3.72;;;;;;;10.08;63.75;101441.44;5036140;28;20064;-68
2021/10/25 11:59:55;;;;;;;7.97;3.70;;;;;;;10.20;63.64;101441.81;5036110;28;20042;-68
2021/10/25 12:02:26;;;;;;;8.07;4.00;;;;;;;10.40;62.70;101442.84;5036045;28;20502;-68
2021/10/25 12:04:56;;;;;;;8.90;3.95;;;;;;;10.46;62.98;101442.59;5036071;28;20119;-68
2021/10/25 12:07:24;;;;;;;8.93;4.05;;;;;;;10.45;63.44;101430.19;5036117;28;20048;-68
2021/10/25 12:09:57;;;;;;;9.05;4.13;;;;;;;10.43;63.49;101422.25;5036381;28;20394;-69
2021/10/25 12:12:26;;;;;;;8.13;4.13;;;;;;;10.30;64.37;101421.00;5036256;28;20050;-68
2021/10/25 12:14:58;;;;;;;8.63;3.88;;;;;;;10.41;63.46;101425.91;5036132;28;20096;-68
2021/10/25 12:17:31;;;;;;;7.75;3.80;;;;;;;10.48;63.48;101422.06;5036122;28;20091;-68
2021/10/25 12:20:01;;;;;;;11.23;4.38;;;;;;;10.47;63.75;101418.53;5035757;28;20049;-69
2021/10/25 12:22:29;;;;;;;10.00;5.18;;;;;;;10.46;63.88;101415.94;5035547;28;20510;-72
2021/10/25 12:24:58;;;;;;;8.45;4.22;;;;;;;10.23;64.44;101417.75;5035996;28;20534;-68
2021/10/25 12:27:32;;;;;;;7.13;4.00;;;;;;;10.32;64.35;101408.47;5035844;28;20124;-68
2021/10/25 12:30:07;;;;;;;11.00;4.50;;;;;;;10.45;64.37;101408.88;5035907;28;20426;-68
2021/10/25 12:32:39;;;;;;;9.70;4.38;;;;;;;10.53;64.07;101402.28;5035605;28;20041;-68
2021/10/25 12:35:09;;;;;;;8.57;4.35;;;;;;;10.59;64.13;101399.34;5035904;28;20124;-68
2021/10/25 12:37:37;;;;;;;7.65;4.18;;;;;;;10.60;64.55;101405.53;5035519;28;20458;-68
2021/10/25 12:40:16;;;;;;;12.88;4.68;;;;;;;10.55;64.67;101402.22;5035616;28;20095;-68
2021/10/25 12:42:46;;;;;;;9.15;4.60;;;;;;;10.61;64.27;101399.25;5035399;28;20037;-68
2021/10/25 12:45:17;;;;;;;11.25;4.43;;;;;;;10.58;64.85;101394.06;5035185;28;20049;-68
2021/10/25 12:47:46;;;;;;;10.55;4.53;;;;;;;10.72;64.64;101397.03;5035384;28;20041;-68
2021/10/25 12:50:17;;;;;;;9.43;4.57;;;;;;;10.84;64.19;101375.16;5035454;28;20091;-68
2021/10/25 12:52:54;;;;;;;8.30;4.55;;;;;;;11.11;63.04;101377.56;5034970;28;20087;-68